createdAt,value
2022-10-05T08:18:05.459Z,3.58
2022-10-05T08:21:11.904Z,3.47
2022-10-05T08:24:41.414Z,3.28
2022-10-05T08:27:56.990Z,3.30
2022-10-05T08:31:08.999Z,3.13
2022-10-05T08:34:34.574Z,2.95
2022-10-05T08:37:41.421Z,3.03
2022-10-05T08:41:03.986Z,3.00
2022-10-05T08:44:45.788Z,3.05
2022-10-05T08:48:01.254Z,3.00
2022-10-05T08:51:08.918Z,2.90
2022-10-05T08:54:36.369Z,2.80
2022-10-05T08:58:03.794Z,2.60
2022-10-05T09:01:42.703Z,2.50
2022-10-05T09:04:58.007Z,2.50
2022-10-05T09:07:59.426Z,2.80
2022-10-05T09:11:04.971Z,2.70
2022-10-05T09:14:33.381Z,2.75
2022-10-05T09:17:49.987Z,2.50
2022-10-05T09:20:55.112Z,2.70
2022-10-05T09:24:08.050Z,2.33
2022-10-05T09:27:17.378Z,2.30
2022-10-05T09:31:06.180Z,2.58
2022-10-05T09:34:32.257Z,2.15
2022-10-05T09:38:08.442Z,2.85
2022-10-05T09:41:43.236Z,2.35
2022-10-05T09:44:45.589Z,2.55
2022-10-05T09:48:05.532Z,2.80
2022-10-05T09:51:14.769Z,2.40
2022-10-05T09:54:21.920Z,2.40
2022-10-05T09:57:35.537Z,2.63
2022-10-05T10:00:51.536Z,2.17
2022-10-05T10:04:16.012Z,2.50
2022-10-05T10:07:32.328Z,2.30
2022-10-05T10:10:43.191Z,1.90
2022-10-05T10:13:52.013Z,1.92
2022-10-05T10:16:56.346Z,2.10
2022-10-05T10:20:02.861Z,2.25
2022-10-05T10:23:10.264Z,2.45
2022-10-05T10:26:11.865Z,1.90
2022-10-05T10:29:40.928Z,1.90
2022-10-05T10:33:01.293Z,2.08
2022-10-05T10:36:17.225Z,2.28
2022-10-05T10:39:30.858Z,1.95
2022-10-05T10:42:58.967Z,2.15
2022-10-05T10:46:03.520Z,1.85
2022-10-05T10:49:20.036Z,1.88
2022-10-05T10:52:58.679Z,2.10
2022-10-05T10:56:15.503Z,1.95
